Time;durP1;ratioP1;P1;durP2;ratioP2;P2;SDS_P1;SDS_P2;PMS_P1;PMS_P2;Temp;Humidity;BMP_temperature;BMP_pressure;BME280_temperature;BME280_humidity;BME280_pressure;Samples;Min_cycle;Max_cycle;Signal;HPM_P1;HPM_P2
2023/07/23 00:00:57;;;;;;;11.48;6.47;;;;;;;;;;5073215;28;20045;-73
2023/07/23 00:03:23;;;;;;;9.68;6.30;;;;;;;;;;5072948;28;20044;-73
2023/07/23 00:05:50;;;;;;;11.23;7.28;;;;;;;;;;5073199;28;20044;-73
2023/07/23 00:08:17;;;;;;;10.07;6.85;;;;;;;;;;5074156;28;20044;-73
2023/07/23 00:10:43;;;;;;;8.05;6.82;;;;;;;;;;5073680;28;20048;-73
2023/07/23 00:13:09;;;;;;;8.52;6.72;;;;;;;;;;5059249;28;20095;-73
2023/07/23 00:15:35;;;;;;;10.20;7.18;;;;;;;;;;5053644;28;20127;-73
2023/07/23 00:18:01;;;;;;;9.20;6.50;;;;;;;;;;5055060;28;20519;-73
2023/07/23 00:20:27;;;;;;;8.45;6.78;;;;;;;;;;5069003;28;20048;-73
2023/07/23 00:22:53;;;;;;;10.20;7.25;;;;;;;;;;5072518;28;20491;-73
2023/07/23 00:25:20;;;;;;;7.97;6.43;;;;;;;;;;5073413;28;20525;-73
2023/07/23 00:27:46;;;;;;;9.98;6.45;;;;;;;;;;5070328;28;20075;-73
2023/07/23 00:30:12;;;;;;;8.95;6.35;;;;;;;;;;5070182;28;20352;-73
2023/07/23 00:32:38;;;;;;;10.30;6.95;;;;;;;;;;5057805;28;20040;-73
2023/07/23 00:35:05;;;;;;;9.60;6.60;;;;;;;;;;5071517;28;20491;-73
2023/07/23 00:37:31;;;;;;;12.40;7.53;;;;;;;;;;5073313;28;20586;-73
2023/07/23 00:39:58;;;;;;;10.70;7.28;;;;;;;;;;5066140;28;20048;-73
2023/07/23 00:42:24;;;;;;;13.52;8.05;;;;;;;;;;5063189;28;20055;-73
2023/07/23 00:44:50;;;;;;;14.43;7.93;;;;;;;;;;5071194;28;20539;-73
2023/07/23 00:47:17;;;;;;;12.38;8.35;;;;;;;;;;5070130;28;20529;-73
2023/07/23 00:49:44;;;;;;;9.93;7.75;;;;;;;;;;5060983;28;20041;-73
2023/07/23 00:52:10;;;;;;;11.68;8.68;;;;;;;;;;5071905;28;20620;-73
2023/07/23 00:54:36;;;;;;;11.45;8.65;;;;;;;;;;5073303;28;20036;-72
2023/07/23 00:57:04;;;;;;;10.48;8.75;;;;;;;;;;5073573;28;20044;-72
2023/07/23 00:59:32;;;;;;;11.93;9.38;;;;;;;;;;5054010;28;20041;-73
2023/07/23 01:01:58;;;;;;;10.75;8.13;;;;;;;;;;5053264;28;20158;-73
2023/07/23 01:04:25;;;;;;;11.25;8.68;;;;;;;;;;5053242;28;20540;-73
2023/07/23 01:06:52;;;;;;;12.32;8.90;;;;;;;;;;5060156;28;20037;-73
2023/07/23 01:09:19;;;;;;;11.27;8.57;;;;;;;;;;5072989;28;20037;-72
2023/07/23 01:11:45;;;;;;;11.45;8.88;;;;;;;;;;5071810;28;20084;-73
2023/07/23 01:14:11;;;;;;;14.02;8.88;;;;;;;;;;5073438;28;20041;-73
2023/07/23 01:16:38;;;;;;;11.38;8.55;;;;;;;;;;5067217;28;20055;-73
2023/07/23 01:19:04;;;;;;;12.90;9.00;;;;;;;;;;5073131;28;20037;-73
2023/07/23 01:21:30;;;;;;;12.00;9.00;;;;;;;;;;5072310;28;20506;-73
2023/07/23 01:23:56;;;;;;;17.63;10.05;;;;;;;;;;5073031;28;20051;-72
2023/07/23 01:26:22;;;;;;;14.60;9.32;;;;;;;;;;5071732;28;20046;-72
2023/07/23 01:28:48;;;;;;;15.23;9.77;;;;;;;;;;5071357;28;20056;-72
2023/07/23 01:31:14;;;;;;;19.52;9.75;;;;;;;;;;5071293;28;20487;-72
2023/07/23 01:33:41;;;;;;;15.27;9.80;;;;;;;;;;5073069;28;20124;-72
2023/07/23 01:36:07;;;;;;;17.83;10.13;;;;;;;;;;5066467;28;20056;-72
2023/07/23 01:38:34;;;;;;;16.45;9.88;;;;;;;;;;5052727;28;20056;-72
2023/07/23 01:41:01;;;;;;;14.68;9.13;;;;;;;;;;5068030;28;20040;-72
2023/07/23 01:43:27;;;;;;;14.25;8.93;;;;;;;;;;5071385;28;20495;-73
2023/07/23 01:45:54;;;;;;;16.58;9.23;;;;;;;;;;5071272;28;20048;-73
2023/07/23 01:48:21;;;;;;;15.10;8.85;;;;;;;;;;5070068;28;20048;-73
2023/07/23 01:50:47;;;;;;;12.52;8.55;;;;;;;;;;5073342;28;20044;-73
2023/07/23 01:53:13;;;;;;;14.55;8.88;;;;;;;;;;5075999;28;20495;-73
2023/07/23 01:55:40;;;;;;;15.73;8.70;;;;;;;;;;5076592;28;20095;-73
2023/07/23 01:58:06;;;;;;;16.73;8.70;;;;;;;;;;5076221;28;20045;-73
2023/07/23 02:00:32;;;;;;;15.95;9.02;;;;;;;;;;5076382;28;20051;-73
2023/07/23 02:02:58;;;;;;;16.77;8.48;;;;;;;;;;5068640;28;20124;-73
2023/07/23 02:05:24;;;;;;;11.98;8.35;;;;;;;;;;5073833;28;20040;-73
2023/07/23 02:07:51;;;;;;;15.18;8.35;;;;;;;;;;5065621;28;20116;-73
2023/07/23 02:10:20;;;;;;;14.48;8.27;;;;;;;;;;5060780;28;20068;-73
2023/07/23 02:12:46;;;;;;;13.93;8.65;;;;;;;;;;5055876;28;20952;-73
2023/07/23 02:15:12;;;;;;;17.05;8.77;;;;;;;;;;5054907;28;20464;-73
2023/07/23 02:17:38;;;;;;;13.82;7.97;;;;;;;;;;5065024;28;20132;-73
2023/07/23 02:20:06;;;;;;;14.45;8.48;;;;;;;;;;5074899;28;20063;-73
2023/07/23 02:22:32;;;;;;;16.02;8.90;;;;;;;;;;5073694;28;20048;-73
2023/07/23 02:24:58;;;;;;;14.77;8.98;;;;;;;;;;5074588;28;20502;-73
2023/07/23 02:27:24;;;;;;;13.15;8.63;;;;;;;;;;5074399;28;20512;-73
2023/07/23 02:29:50;;;;;;;15.13;8.68;;;;;;;;;;5075949;28;20044;-73
2023/07/23 02:32:16;;;;;;;14.40;9.15;;;;;;;;;;5065423;28;20049;-73
2023/07/23 02:34:42;;;;;;;13.60;8.60;;;;;;;;;;5070887;28;20098;-73
2023/07/23 02:37:08;;;;;;;14.13;8.32;;;;;;;;;;5072307;28;20063;-73
2023/07/23 02:39:34;;;;;;;11.88;7.82;;;;;;;;;;5061996;28;20040;-73
2023/07/23 02:42:00;;;;;;;14.02;8.40;;;;;;;;;;5055517;28;20037;-73
2023/07/23 02:44:26;;;;;;;14.68;8.15;;;;;;;;;;5055565;28;20496;-73
2023/07/23 02:46:53;;;;;;;15.63;9.07;;;;;;;;;;5062376;28;20395;-73
2023/07/23 02:49:19;;;;;;;13.43;8.73;;;;;;;;;;5073651;28;20041;-73
2023/07/23 02:51:45;;;;;;;15.50;8.55;;;;;;;;;;5074349;28;20044;-73
2023/07/23 02:54:11;;;;;;;11.82;7.70;;;;;;;;;;5071387;28;20430;-73
2023/07/23 02:56:37;;;;;;;13.70;8.30;;;;;;;;;;5062287;28;20041;-73
2023/07/23 02:59:03;;;;;;;15.98;8.70;;;;;;;;;;5080229;28;20104;-73
2023/07/23 03:01:30;;;;;;;17.67;8.73;;;;;;;;;;5080942;28;20036;-73
2023/07/23 03:03:56;;;;;;;13.20;9.00;;;;;;;;;;5077876;28;20483;-73
2023/07/23 03:06:22;;;;;;;13.88;8.10;;;;;;;;;;5057360;28;20041;-73
2023/07/23 03:08:48;;;;;;;15.25;8.88;;;;;;;;;;5075055;28;20045;-73
2023/07/23 03:11:14;;;;;;;12.82;7.90;;;;;;;;;;5074366;28;20044;-73
2023/07/23 03:13:40;;;;;;;12.82;8.15;;;;;;;;;;5073756;28;20048;-73
2023/07/23 03:16:06;;;;;;;15.63;8.73;;;;;;;;;;5073570;28;20225;-73
2023/07/23 03:18:33;;;;;;;12.90;8.02;;;;;;;;;;5073747;28;20044;-73
2023/07/23 03:20:59;;;;;;;15.32;8.85;;;;;;;;;;5053767;28;20052;-73
2023/07/23 03:23:26;;;;;;;15.20;9.57;;;;;;;;;;5073671;28;20168;-73
2023/07/23 03:25:52;;;;;;;13.90;8.45;;;;;;;;;;5074796;28;20487;-73
2023/07/23 03:28:18;;;;;;;14.15;9.30;;;;;;;;;;5057271;28;20466;-73
2023/07/23 03:30:44;;;;;;;14.48;8.95;;;;;;;;;;5054341;28;20442;-73
2023/07/23 03:33:10;;;;;;;15.93;8.48;;;;;;;;;;5059492;28;20045;-73
2023/07/23 03:35:36;;;;;;;15.80;9.35;;;;;;;;;;5059413;28;20049;-73
2023/07/23 03:38:02;;;;;;;15.18;8.45;;;;;;;;;;5074395;28;20040;-73
2023/07/23 03:40:28;;;;;;;15.45;8.45;;;;;;;;;;5063879;28;20110;-72
2023/07/23 03:42:54;;;;;;;13.18;8.50;;;;;;;;;;5054953;28;20044;-72
2023/07/23 03:45:20;;;;;;;14.63;8.45;;;;;;;;;;5070447;28;20430;-73
2023/07/23 03:47:47;;;;;;;14.65;9.13;;;;;;;;;;5074836;28;20044;-73
2023/07/23 03:50:13;;;;;;;14.77;9.68;;;;;;;;;;5073001;28;20124;-73
2023/07/23 03:52:39;;;;;;;14.45;8.85;;;;;;;;;;5055614;28;20090;-73
2023/07/23 03:55:05;;;;;;;15.43;9.38;;;;;;;;;;5054692;28;20052;-73
2023/07/23 03:57:31;;;;;;;15.43;9.23;;;;;;;;;;5055262;28;20116;-73
2023/07/23 03:59:57;;;;;;;14.75;8.75;;;;;;;;;;5063031;28;20060;-73
2023/07/23 04:02:23;;;;;;;15.45;9.13;;;;;;;;;;5053010;28;20049;-73
2023/07/23 04:04:50;;;;;;;15.07;8.98;;;;;;;;;;5054131;28;20387;-73
2023/07/23 04:07:16;;;;;;;14.75;8.80;;;;;;;;;;5056300;28;20048;-73
2023/07/23 04:09:42;;;;;;;18.55;8.63;;;;;;;;;;5054713;28;20084;-73
2023/07/23 04:12:11;;;;;;;12.60;8.70;;;;;;;;;;5055437;28;20072;-73
2023/07/23 04:14:42;;;;;;;14.05;8.77;;;;;;;;;;5052719;28;20430;-73
2023/07/23 04:17:09;;;;;;;13.00;9.25;;;;;;;;;;5056926;28;20044;-73
2023/07/23 04:19:35;;;;;;;14.55;9.43;;;;;;;;;;5074202;28;20041;-73
2023/07/23 04:22:01;;;;;;;14.20;8.30;;;;;;;;;;5072481;28;20051;-73
2023/07/23 04:24:27;;;;;;;13.27;8.77;;;;;;;;;;5072911;28;20064;-73
2023/07/23 04:26:54;;;;;;;13.18;8.20;;;;;;;;;;5073469;28;20051;-73
2023/07/23 04:29:20;;;;;;;14.07;8.55;;;;;;;;;;5073244;28;20123;-73
2023/07/23 04:31:46;;;;;;;12.93;8.43;;;;;;;;;;5070226;28;20079;-73
2023/07/23 04:34:12;;;;;;;17.83;8.57;;;;;;;;;;5064278;28;20471;-73
2023/07/23 04:36:38;;;;;;;13.90;7.93;;;;;;;;;;5055900;28;20063;-73
2023/07/23 04:39:04;;;;;;;12.98;8.50;;;;;;;;;;5059917;28;20060;-73
2023/07/23 04:41:30;;;;;;;12.88;8.27;;;;;;;;;;5071887;28;20044;-73
2023/07/23 04:43:58;;;;;;;11.30;8.25;;;;;;;;;;5073519;28;20076;-73
2023/07/23 04:46:24;;;;;;;12.82;8.50;;;;;;;;;;5073098;28;20506;-73
2023/07/23 04:48:50;;;;;;;14.00;8.57;;;;;;;;;;5073479;28;20045;-73
2023/07/23 04:51:16;;;;;;;14.65;8.65;;;;;;;;;;5071379;28;20037;-73
2023/07/23 04:53:42;;;;;;;12.68;8.95;;;;;;;;;;5073611;28;20044;-73
2023/07/23 04:56:08;;;;;;;12.52;8.18;;;;;;;;;;5057383;28;20048;-73
2023/07/23 04:58:34;;;;;;;12.40;8.55;;;;;;;;;;5068568;28;20052;-73
2023/07/23 05:01:06;;;;;;;13.23;8.18;;;;;;;;;;5053331;28;20044;-73
2023/07/23 05:03:32;;;;;;;13.30;8.05;;;;;;;;;;5058189;28;20541;-73
2023/07/23 05:06:01;;;;;;;13.27;9.00;;;;;;;;;;5059817;28;20525;-73
2023/07/23 05:08:27;;;;;;;13.00;7.70;;;;;;;;;;5073323;28;20040;-72
2023/07/23 05:10:59;;;;;;;12.57;8.25;;;;;;;;;;5070916;28;20051;-73
2023/07/23 05:13:25;;;;;;;14.88;8.40;;;;;;;;;;5072541;28;20387;-73
2023/07/23 05:15:51;;;;;;;12.93;8.95;;;;;;;;;;5073122;28;20048;-73
2023/07/23 05:18:17;;;;;;;13.70;7.85;;;;;;;;;;5057124;28;20045;-73
2023/07/23 05:20:43;;;;;;;11.20;7.97;;;;;;;;;;5059665;28;20120;-73
2023/07/23 05:23:09;;;;;;;12.23;7.47;;;;;;;;;;5052047;28;20123;-73
2023/07/23 05:25:35;;;;;;;11.02;7.47;;;;;;;;;;5053348;28;20081;-73
2023/07/23 05:28:02;;;;;;;12.98;7.95;;;;;;;;;;5055672;28;20419;-75
2023/07/23 05:30:28;;;;;;;14.40;8.52;;;;;;;;;;5056911;28;20048;-73
2023/07/23 05:32:54;;;;;;;13.60;8.43;;;;;;;;;;5069104;28;20052;-73
2023/07/23 05:35:20;;;;;;;12.40;8.80;;;;;;;;;;5069220;28;20048;-73
2023/07/23 05:37:46;;;;;;;11.93;7.65;;;;;;;;;;5076784;28;20471;-73
2023/07/23 05:40:12;;;;;;;13.85;7.32;;;;;;;;;;5068062;28;20413;-73
2023/07/23 05:42:38;;;;;;;11.52;7.63;;;;;;;;;;5060899;28;20379;-73
2023/07/23 05:45:04;;;;;;;11.85;7.20;;;;;;;;;;5076828;28;20127;-73
2023/07/23 05:47:30;;;;;;;10.40;7.40;;;;;;;;;;5074034;28;20049;-73
2023/07/23 05:49:56;;;;;;;12.52;7.70;;;;;;;;;;5066653;28;20045;-73
2023/07/23 05:52:22;;;;;;;9.60;7.40;;;;;;;;;;5073172;28;20049;-78
2023/07/23 05:54:48;;;;;;;10.50;7.18;;;;;;;;;;5058737;28;20071;-73
2023/07/23 05:57:14;;;;;;;12.27;7.63;;;;;;;;;;5076079;28;20076;-73
2023/07/23 05:59:40;;;;;;;13.18;7.47;;;;;;;;;;5075105;28;20539;-73
2023/07/23 06:02:06;;;;;;;11.32;7.35;;;;;;;;;;5072055;28;20044;-73
2023/07/23 06:04:32;;;;;;;10.82;7.25;;;;;;;;;;5060766;28;20482;-73
2023/07/23 06:06:59;;;;;;;13.30;7.68;;;;;;;;;;5066518;28;20444;-73
2023/07/23 06:09:26;;;;;;;13.68;7.97;;;;;;;;;;5070890;28;20431;-73
2023/07/23 06:11:53;;;;;;;13.63;8.13;;;;;;;;;;5074854;28;20076;-73
2023/07/23 06:14:19;;;;;;;10.90;7.97;;;;;;;;;;5076108;28;20098;-73
2023/07/23 06:16:45;;;;;;;10.60;7.90;;;;;;;;;;5073910;28;20051;-73
2023/07/23 06:19:11;;;;;;;13.15;7.40;;;;;;;;;;5058683;28;20110;-73
2023/07/23 06:21:37;;;;;;;12.75;8.48;;;;;;;;;;5055605;28;20052;-74
2023/07/23 06:24:03;;;;;;;11.43;7.88;;;;;;;;;;5071935;28;20178;-73
2023/07/23 06:26:30;;;;;;;13.75;8.02;;;;;;;;;;5067113;28;20486;-73
2023/07/23 06:28:56;;;;;;;12.00;7.80;;;;;;;;;;5065512;28;20099;-73
2023/07/23 06:31:22;;;;;;;10.35;7.82;;;;;;;;;;5078533;28;20051;-73
2023/07/23 06:33:49;;;;;;;13.25;8.02;;;;;;;;;;5073637;28;20051;-74
2023/07/23 06:36:15;;;;;;;12.68;8.18;;;;;;;;;;5073415;28;20064;-74
2023/07/23 06:38:41;;;;;;;11.50;7.75;;;;;;;;;;5071073;28;20083;-74
2023/07/23 06:41:07;;;;;;;11.18;7.88;;;;;;;;;;5073201;28;20052;-74
2023/07/23 06:43:33;;;;;;;12.55;8.40;;;;;;;;;;5062753;28;20449;-73
2023/07/23 06:45:59;;;;;;;12.98;8.35;;;;;;;;;;5064693;28;20067;-73
2023/07/23 06:48:28;;;;;;;12.52;8.57;;;;;;;;;;5074128;28;20116;-73
2023/07/23 06:50:55;;;;;;;12.30;8.20;;;;;;;;;;5071474;28;20052;-77
2023/07/23 06:53:21;;;;;;;12.82;9.10;;;;;;;;;;5055342;28;20053;-74
2023/07/23 06:55:57;;;;;;;15.57;9.30;;;;;;;;;;5055270;28;20044;-75
2023/07/23 06:58:23;;;;;;;14.65;9.32;;;;;;;;;;5054932;28;20041;-73
2023/07/23 07:00:49;;;;;;;14.65;8.68;;;;;;;;;;5067408;28;20441;-74
2023/07/23 07:03:15;;;;;;;12.68;8.75;;;;;;;;;;5053965;28;20153;-73
2023/07/23 07:05:41;;;;;;;11.73;9.23;;;;;;;;;;5067255;28;20053;-74
2023/07/23 07:08:07;;;;;;;14.20;8.90;;;;;;;;;;5073777;28;20044;-74
2023/07/23 07:10:33;;;;;;;13.48;9.57;;;;;;;;;;5073463;28;20093;-74
2023/07/23 07:13:00;;;;;;;13.77;9.68;;;;;;;;;;5068058;28;20048;-73
2023/07/23 07:15:26;;;;;;;12.77;9.07;;;;;;;;;;5057596;28;20041;-73
2023/07/23 07:17:52;;;;;;;15.40;10.00;;;;;;;;;;5072451;28;20045;-73
2023/07/23 07:20:18;;;;;;;14.02;9.55;;;;;;;;;;5073286;28;20387;-73
2023/07/23 07:22:44;;;;;;;19.90;10.65;;;;;;;;;;5074890;28;20294;-73
2023/07/23 07:25:10;;;;;;;13.15;9.25;;;;;;;;;;5074617;28;20080;-73
2023/07/23 07:27:36;;;;;;;17.90;11.25;;;;;;;;;;5069403;28;20041;-73
2023/07/23 07:30:03;;;;;;;17.08;10.77;;;;;;;;;;5052989;28;20048;-73
2023/07/23 07:32:29;;;;;;;16.25;11.00;;;;;;;;;;5058441;28;20047;-75
2023/07/23 07:34:55;;;;;;;14.00;10.20;;;;;;;;;;5060546;28;20041;-74
2023/07/23 07:37:22;;;;;;;15.10;10.50;;;;;;;;;;5062976;28;20048;-74
2023/07/23 07:39:48;;;;;;;17.75;11.35;;;;;;;;;;5074554;28;20044;-74
2023/07/23 07:42:14;;;;;;;16.95;11.43;;;;;;;;;;5072871;28;20123;-74
2023/07/23 07:44:40;;;;;;;16.55;10.18;;;;;;;;;;5072862;28;20056;-74
2023/07/23 07:47:06;;;;;;;14.77;10.77;;;;;;;;;;5074098;28;20044;-74
2023/07/23 07:49:32;;;;;;;15.07;10.90;;;;;;;;;;5073043;28;20124;-74
2023/07/23 07:51:59;;;;;;;16.23;10.77;;;;;;;;;;5071009;28;20056;-74
2023/07/23 07:54:25;;;;;;;15.75;11.20;;;;;;;;;;5072234;28;20510;-74
2023/07/23 07:56:51;;;;;;;21.73;12.70;;;;;;;;;;5073723;28;20084;-74
2023/07/23 07:59:17;;;;;;;18.13;11.82;;;;;;;;;;5072597;28;20049;-74
2023/07/23 08:01:44;;;;;;;18.35;12.88;;;;;;;;;;5072354;28;20052;-74
2023/07/23 08:04:10;;;;;;;18.70;13.52;;;;;;;;;;5074244;28;20091;-74
2023/07/23 08:06:40;;;;;;;17.67;12.48;;;;;;;;;;5072070;28;20178;-74
2023/07/23 08:09:08;;;;;;;17.70;13.18;;;;;;;;;;5072753;28;20044;-75
2023/07/23 08:11:35;;;;;;;17.27;11.40;;;;;;;;;;5073714;28;20044;-74
2023/07/23 08:14:03;;;;;;;20.25;13.60;;;;;;;;;;5073898;28;20123;-74
2023/07/23 08:16:30;;;;;;;16.83;12.05;;;;;;;;;;5073421;28;20041;-75
2023/07/23 08:18:56;;;;;;;17.73;12.90;;;;;;;;;;5073312;28;20402;-75
2023/07/23 08:21:23;;;;;;;17.92;13.43;;;;;;;;;;5066947;28;20439;-75
2023/07/23 08:23:49;;;;;;;18.48;13.55;;;;;;;;;;5059639;28;20084;-75
2023/07/23 08:26:19;;;;;;;18.33;13.68;;;;;;;;;;5069615;28;20079;-75
2023/07/23 08:28:51;;;;;;;20.63;13.98;;;;;;;;;;5072097;28;20471;-75
2023/07/23 08:31:18;;;;;;;18.88;13.52;;;;;;;;;;5073366;28;20051;-75
2023/07/23 08:33:48;;;;;;;17.58;13.63;;;;;;;;;;5070326;28;20137;-75
2023/07/23 08:36:16;;;;;;;18.50;14.40;;;;;;;;;;5058494;28;20132;-75
2023/07/23 08:38:42;;;;;;;20.42;15.18;;;;;;;;;;5065861;28;20048;-75
2023/07/23 08:41:16;;;;;;;18.05;14.63;;;;;;;;;;5073282;28;20491;-75
2023/07/23 08:43:48;;;;;;;19.38;14.38;;;;;;;;;;5073614;28;20113;-75
2023/07/23 08:46:24;;;;;;;18.60;14.13;;;;;;;;;;5070611;28;20040;-75
2023/07/23 08:48:50;;;;;;;;;;;;;;;;;;5073698;28;20049;-75
2023/07/23 08:51:16;;;;;;;17.77;13.82;;;;;;;;;;5072974;28;20362;-75
2023/07/23 08:53:42;;;;;;;14.38;12.52;;;;;;;;;;5071682;28;20036;-75
2023/07/23 08:56:08;;;;;;;15.05;13.00;;;;;;;;;;5065573;28;20044;-75
2023/07/23 08:58:35;;;;;;;14.77;12.98;;;;;;;;;;5071966;28;20418;-77
2023/07/23 09:01:01;;;;;;;17.35;15.00;;;;;;;;;;5063492;28;20553;-77
2023/07/23 09:03:27;;;;;;;17.92;16.02;;;;;;;;;;5061575;28;20063;-77
2023/07/23 09:05:53;;;;;;;21.50;17.02;;;;;;;;;;5057124;28;20116;-77
2023/07/23 09:08:20;;;;;;;19.42;16.75;;;;;;;;;;5052277;28;20049;-77
2023/07/23 09:10:46;;;;;;;21.77;16.55;;;;;;;;;;5052679;28;20041;-77
2023/07/23 09:13:16;;;;;;;19.15;16.45;;;;;;;;;;5065638;28;20064;-76
2023/07/23 09:15:42;;;;;;;21.42;16.20;;;;;;;;;;5066423;28;20048;-76
2023/07/23 09:18:09;;;;;;;19.20;16.52;;;;;;;;;;5068670;28;20120;-77
2023/07/23 09:20:35;;;;;;;19.33;17.05;;;;;;;;;;5063792;28;20044;-76
2023/07/23 09:23:05;;;;;;;19.83;16.23;;;;;;;;;;5050829;28;20392;-77
2023/07/23 09:25:32;;;;;;;18.23;15.70;;;;;;;;;;5061631;28;20121;-77
2023/07/23 09:27:58;;;;;;;18.40;15.80;;;;;;;;;;5069764;28;20059;-77
2023/07/23 09:30:25;;;;;;;17.90;16.00;;;;;;;;;;5051795;28;20037;-77
2023/07/23 09:32:58;;;;;;;18.75;15.43;;;;;;;;;;5062091;28;20044;-76
2023/07/23 09:35:25;;;;;;;18.00;15.98;;;;;;;;;;5063633;28;20049;-76
2023/07/23 09:37:57;;;;;;;18.80;16.80;;;;;;;;;;5069955;28;20133;-76
2023/07/23 09:40:36;;;;;;;18.73;15.20;;;;;;;;;;5069190;28;20086;-76
2023/07/23 09:43:02;;;;;;;19.80;16.95;;;;;;;;;;5072741;28;20044;-75
2023/07/23 09:45:31;;;;;;;19.30;15.55;;;;;;;;;;5072251;28;20554;-75
2023/07/23 09:48:01;;;;;;;22.88;16.95;;;;;;;;;;5059562;28;20095;-75
2023/07/23 09:50:27;;;;;;;20.58;16.50;;;;;;;;;;5069604;28;20036;-75
2023/07/23 09:52:53;;;;;;;18.73;15.50;;;;;;;;;;5074528;28;20044;-75
2023/07/23 09:55:21;;;;;;;18.92;16.45;;;;;;;;;;5072624;28;20182;-76
2023/07/23 09:57:50;;;;;;;20.20;16.33;;;;;;;;;;5078602;28;20040;-75
2023/07/23 10:00:17;;;;;;;20.13;16.20;;;;;;;;;;5057163;28;20510;-75
2023/07/23 10:02:43;;;;;;;22.58;16.48;;;;;;;;;;5054406;28;20044;-75
2023/07/23 10:05:15;;;;;;;19.50;15.85;;;;;;;;;;5071549;28;20049;-76
2023/07/23 10:07:41;;;;;;;20.45;15.68;;;;;;;;;;5067653;28;20438;-75
2023/07/23 10:10:08;;;;;;;21.55;15.73;;;;;;;;;;5061242;28;20047;-75
2023/07/23 10:12:34;;;;;;;19.40;14.95;;;;;;;;;;5071094;28;20049;-76
2023/07/23 10:15:00;;;;;;;21.30;15.88;;;;;;;;;;5075401;28;20123;-76
2023/07/23 10:17:28;;;;;;;19.48;15.65;;;;;;;;;;5075126;28;20041;-75
2023/07/23 10:19:55;;;;;;;20.58;16.88;;;;;;;;;;5074039;28;20051;-76
2023/07/23 10:22:24;;;;;;;18.17;15.07;;;;;;;;;;5072979;28;20041;-79
2023/07/23 10:24:52;;;;;;;18.65;15.40;;;;;;;;;;5077791;28;20053;-76
2023/07/23 10:27:18;;;;;;;20.25;16.23;;;;;;;;;;5075053;28;20040;-75
2023/07/23 10:30:03;;;;;;;19.23;15.82;;;;;;;;;;5065364;28;20037;-75
2023/07/23 10:32:31;;;;;;;19.52;16.13;;;;;;;;;;5072339;28;20115;-75
2023/07/23 10:34:58;;;;;;;20.50;14.82;;;;;;;;;;5075445;28;20419;-75
2023/07/23 10:37:24;;;;;;;20.60;15.85;;;;;;;;;;5069975;28;20061;-75
2023/07/23 10:39:51;;;;;;;21.02;16.20;;;;;;;;;;5056510;28;20179;-75
2023/07/23 10:42:33;;;;;;;19.50;15.75;;;;;;;;;;5068973;28;20044;-75
2023/07/23 10:45:18;;;;;;;17.92;15.02;;;;;;;;;;5071333;28;20170;-75
2023/07/23 10:48:03;;;;;;;20.38;16.13;;;;;;;;;;5071772;28;20044;-75
2023/07/23 10:50:30;;;;;;;19.70;14.45;;;;;;;;;;5075419;28;20515;-75
2023/07/23 10:53:04;;;;;;;19.35;15.35;;;;;;;;;;5068275;28;20440;-75
2023/07/23 10:55:33;;;;;;;20.75;14.85;;;;;;;;;;5061568;28;20040;-75
2023/07/23 10:58:12;;;;;;;20.40;14.93;;;;;;;;;;5071022;28;20041;-75
2023/07/23 11:00:46;;;;;;;18.48;14.35;;;;;;;;;;5076001;28;20052;-75
2023/07/23 11:03:16;;;;;;;20.02;14.77;;;;;;;;;;5074759;28;20048;-77
2023/07/23 11:05:43;;;;;;;18.23;14.05;;;;;;;;;;5075889;28;20445;-75
2023/07/23 11:08:13;;;;;;;19.02;14.80;;;;;;;;;;5073154;28;20102;-75
2023/07/23 11:10:48;;;;;;;17.52;14.35;;;;;;;;;;5074803;28;20052;-75
2023/07/23 11:13:16;;;;;;;15.75;13.40;;;;;;;;;;5059526;28;20501;-75
2023/07/23 11:15:42;;;;;;;17.38;12.95;;;;;;;;;;5074998;28;20120;-75
2023/07/23 11:18:09;;;;;;;17.65;13.88;;;;;;;;;;5070731;28;20037;-75
2023/07/23 11:20:35;;;;;;;18.35;14.27;;;;;;;;;;5061851;28;20037;-75
2023/07/23 11:23:04;;;;;;;20.83;14.93;;;;;;;;;;5067898;28;20068;-75
2023/07/23 11:25:30;;;;;;;18.83;15.40;;;;;;;;;;5055097;28;20140;-75
2023/07/23 11:27:56;;;;;;;19.65;15.07;;;;;;;;;;5073235;28;20041;-75
2023/07/23 11:30:23;;;;;;;18.65;14.48;;;;;;;;;;5074578;28;20158;-75
2023/07/23 11:32:49;;;;;;;18.48;14.90;;;;;;;;;;5066948;28;20055;-75
2023/07/23 11:35:15;;;;;;;22.08;15.43;;;;;;;;;;5054017;28;20478;-75
2023/07/23 11:37:51;;;;;;;18.85;14.55;;;;;;;;;;5074403;28;20151;-75
2023/07/23 11:40:21;;;;;;;21.52;14.05;;;;;;;;;;5069931;28;20048;-75
2023/07/23 11:42:47;;;;;;;16.63;13.90;;;;;;;;;;5074599;28;20052;-75
2023/07/23 11:45:13;;;;;;;18.92;14.32;;;;;;;;;;5074328;28;20036;-75
2023/07/23 11:47:57;;;;;;;18.33;13.70;;;;;;;;;;5075122;28;20142;-75
2023/07/23 11:50:25;;;;;;;16.48;13.45;;;;;;;;;;5068093;28;20122;-75
2023/07/23 11:52:52;;;;;;;16.73;13.75;;;;;;;;;;5074603;28;20481;-76
2023/07/23 11:55:26;;;;;;;20.48;14.70;;;;;;;;;;5074290;28;20040;-75
2023/07/23 11:57:52;;;;;;;19.20;14.93;;;;;;;;;;5070476;28;20036;-75
2023/07/23 12:00:27;;;;;;;23.70;14.95;;;;;;;;;;5073901;28;20094;-75
2023/07/23 12:02:54;;;;;;;20.70;15.43;;;;;;;;;;5071886;28;20062;-75
2023/07/23 12:05:21;;;;;;;25.20;15.70;;;;;;;;;;5058410;28;20445;-75
2023/07/23 12:07:53;;;;;;;19.27;15.07;;;;;;;;;;5055728;28;20040;-75
2023/07/23 12:10:19;;;;;;;19.02;14.40;;;;;;;;;;5071442;28;20486;-75
2023/07/23 12:12:49;;;;;;;19.48;15.32;;;;;;;;;;5059212;28;20351;-75
2023/07/23 12:15:16;;;;;;;18.33;14.90;;;;;;;;;;5065002;28;20040;-75
2023/07/23 12:17:43;;;;;;;17.50;14.50;;;;;;;;;;5072280;28;20120;-75
2023/07/23 12:20:10;;;;;;;17.15;13.95;;;;;;;;;;5072014;28;20048;-75
2023/07/23 12:23:08;;;;;;;19.08;14.02;;;;;;;;;;5061356;28;20049;-75
2023/07/23 12:25:35;;;;;;;17.30;13.25;;;;;;;;;;5023968;28;20138;-75
2023/07/23 12:28:01;;;;;;;16.30;14.27;;;;;;;;;;5071742;28;20044;-75
2023/07/23 12:30:27;;;;;;;17.40;14.52;;;;;;;;;;5071885;28;20048;-75
2023/07/23 12:32:53;;;;;;;16.23;14.23;;;;;;;;;;5072887;28;20078;-75
2023/07/23 12:35:19;;;;;;;16.48;13.70;;;;;;;;;;5070811;28;20071;-75
2023/07/23 12:37:45;;;;;;;16.80;14.25;;;;;;;;;;5070932;28;20491;-75
2023/07/23 12:40:12;;;;;;;16.40;14.13;;;;;;;;;;5072934;28;20551;-75
2023/07/23 12:42:38;;;;;;;14.98;12.57;;;;;;;;;;5067812;28;20063;-75
2023/07/23 12:45:04;;;;;;;14.60;12.73;;;;;;;;;;5072004;28;20052;-75
2023/07/23 12:47:31;;;;;;;15.20;13.05;;;;;;;;;;5073240;28;20041;-75
2023/07/23 12:50:00;;;;;;;20.10;13.43;;;;;;;;;;5070706;28;20064;-75
2023/07/23 12:52:26;;;;;;;14.15;12.13;;;;;;;;;;5068822;28;20047;-75
2023/07/23 12:54:53;;;;;;;15.18;12.07;;;;;;;;;;5064432;28;20041;-75
2023/07/23 12:57:21;;;;;;;13.70;11.77;;;;;;;;;;5064928;28;20067;-75
2023/07/23 12:59:47;;;;;;;13.60;11.73;;;;;;;;;;5057547;28;20040;-75
2023/07/23 13:02:13;;;;;;;13.50;11.43;;;;;;;;;;5071776;28;20115;-75
2023/07/23 13:04:42;;;;;;;12.73;11.38;;;;;;;;;;5069907;28;20099;-75
2023/07/23 13:07:08;;;;;;;14.40;10.35;;;;;;;;;;5071121;28;20487;-75
2023/07/23 13:09:34;;;;;;;11.95;10.73;;;;;;;;;;5066689;28;20045;-75
2023/07/23 13:12:00;;;;;;;10.88;9.77;;;;;;;;;;5052281;28;20415;-75
2023/07/23 13:14:26;;;;;;;11.75;9.90;;;;;;;;;;5057675;28;20044;-75
2023/07/23 13:16:52;;;;;;;10.40;8.73;;;;;;;;;;5063220;28;20086;-75
2023/07/23 13:19:18;;;;;;;10.20;9.10;;;;;;;;;;5066269;28;20163;-75
2023/07/23 13:21:44;;;;;;;10.73;9.35;;;;;;;;;;5064628;28;20527;-75
2023/07/23 13:24:11;;;;;;;14.55;11.27;;;;;;;;;;5072958;28;20045;-75
2023/07/23 13:26:37;;;;;;;12.68;10.50;;;;;;;;;;5057792;28;20088;-75
2023/07/23 13:29:03;;;;;;;12.77;10.18;;;;;;;;;;5067728;28;20060;-75
2023/07/23 13:31:30;;;;;;;14.50;10.45;;;;;;;;;;5064214;28;20083;-75
2023/07/23 13:33:56;;;;;;;11.07;9.13;;;;;;;;;;5068244;28;20474;-75
2023/07/23 13:36:22;;;;;;;11.00;8.48;;;;;;;;;;5076368;28;20072;-75
2023/07/23 13:38:49;;;;;;;10.55;8.63;;;;;;;;;;5072069;28;20052;-75
2023/07/23 13:41:15;;;;;;;11.75;7.75;;;;;;;;;;5072320;28;20498;-75
2023/07/23 13:43:41;;;;;;;9.07;7.35;;;;;;;;;;5067136;28;20048;-75
2023/07/23 13:46:07;;;;;;;8.57;7.22;;;;;;;;;;5052830;28;20052;-75
2023/07/23 13:48:33;;;;;;;9.80;6.85;;;;;;;;;;5064857;28;20496;-75
2023/07/23 13:50:59;;;;;;;9.63;6.25;;;;;;;;;;5065267;28;20076;-75
2023/07/23 13:53:25;;;;;;;8.80;6.05;;;;;;;;;;5059049;28;20041;-75
2023/07/23 13:55:51;;;;;;;8.70;6.05;;;;;;;;;;5061542;28;20076;-75
2023/07/23 13:58:17;;;;;;;9.52;5.97;;;;;;;;;;5069810;28;20036;-75
2023/07/23 14:00:44;;;;;;;10.57;6.25;;;;;;;;;;5063511;28;20041;-75
2023/07/23 14:03:10;;;;;;;8.32;5.68;;;;;;;;;;5074046;28;20041;-75
2023/07/23 14:05:36;;;;;;;10.10;5.45;;;;;;;;;;5063806;28;20108;-75
2023/07/23 14:08:02;;;;;;;8.30;5.53;;;;;;;;;;5064987;28;20115;-75
2023/07/23 14:10:28;;;;;;;13.20;5.53;;;;;;;;;;5074693;28;20045;-76
2023/07/23 14:12:54;;;;;;;9.95;5.90;;;;;;;;;;5070178;28;20068;-77
2023/07/23 14:15:21;;;;;;;10.57;5.80;;;;;;;;;;5064756;28;20048;-76
2023/07/23 14:17:47;;;;;;;8.10;5.00;;;;;;;;;;5064479;28;20124;-75
2023/07/23 14:20:13;;;;;;;11.27;5.30;;;;;;;;;;5067643;28;20132;-75
2023/07/23 14:22:39;;;;;;;11.40;4.85;;;;;;;;;;5070457;28;20036;-75
2023/07/23 14:25:05;;;;;;;8.13;4.10;;;;;;;;;;5065605;28;20047;-75